sensor_id;sensor_type;location;lat;lon;timestamp;P1;durP1;ratioP1;P2;durP2;ratioP2
73869;SDS011;64924;42.140;24.762;2023-02-01T00:02:00;6.68;;;3.90;;
73869;SDS011;64924;42.140;24.762;2023-02-01T00:04:26;8.25;;;3.67;;
73869;SDS011;64924;42.140;24.762;2023-02-01T00:06:52;6.80;;;4.00;;
73869;SDS011;64924;42.140;24.762;2023-02-01T00:09:17;7.25;;;3.92;;
73869;SDS011;64924;42.140;24.762;2023-02-01T00:11:43;4.63;;;3.08;;
73869;SDS011;64924;42.140;24.762;2023-02-01T00:14:09;6.00;;;3.88;;
73869;SDS011;64924;42.140;24.762;2023-02-01T00:16:35;5.30;;;3.70;;
73869;SDS011;64924;42.140;24.762;2023-02-01T00:19:05;6.45;;;3.38;;
73869;SDS011;64924;42.140;24.762;2023-02-01T00:21:33;6.55;;;3.60;;
73869;SDS011;64924;42.140;24.762;2023-02-01T00:24:00;4.10;;;2.78;;
73869;SDS011;64924;42.140;24.762;2023-02-01T00:26:47;6.55;;;3.03;;
73869;SDS011;64924;42.140;24.762;2023-02-01T00:29:26;4.70;;;3.15;;
73869;SDS011;64924;42.140;24.762;2023-02-01T00:31:52;7.00;;;3.65;;
73869;SDS011;64924;42.140;24.762;2023-02-01T00:34:18;9.80;;;3.28;;
73869;SDS011;64924;42.140;24.762;2023-02-01T00:36:47;6.00;;;3.72;;
73869;SDS011;64924;42.140;24.762;2023-02-01T00:39:15;5.78;;;3.25;;
73869;SDS011;64924;42.140;24.762;2023-02-01T00:41:51;8.32;;;3.75;;
73869;SDS011;64924;42.140;24.762;2023-02-01T00:44:19;9.65;;;4.15;;
73869;SDS011;64924;42.140;24.762;2023-02-01T00:47:03;7.35;;;3.65;;
73869;SDS011;64924;42.140;24.762;2023-02-01T00:49:45;8.27;;;3.65;;
73869;SDS011;64924;42.140;24.762;2023-02-01T00:52:29;6.78;;;3.33;;
73869;SDS011;64924;42.140;24.762;2023-02-01T00:55:06;5.65;;;3.50;;
73869;SDS011;64924;42.140;24.762;2023-02-01T00:57:32;5.03;;;2.90;;
73869;SDS011;64924;42.140;24.762;2023-02-01T00:59:58;5.97;;;3.17;;
73869;SDS011;64924;42.140;24.762;2023-02-01T01:02:29;5.53;;;3.33;;
73869;SDS011;64924;42.140;24.762;2023-02-01T01:05:01;5.65;;;3.35;;
73869;SDS011;64924;42.140;24.762;2023-02-01T01:07:33;7.55;;;3.17;;
73869;SDS011;64924;42.140;24.762;2023-02-01T01:10:05;4.85;;;3.75;;
73869;SDS011;64924;42.140;24.762;2023-02-01T01:12:52;6.13;;;2.90;;
73869;SDS011;64924;42.140;24.762;2023-02-01T01:15:23;5.68;;;3.25;;
73869;SDS011;64924;42.140;24.762;2023-02-01T01:17:50;4.63;;;2.90;;
73869;SDS011;64924;42.140;24.762;2023-02-01T01:20:20;4.95;;;3.42;;
73869;SDS011;64924;42.140;24.762;2023-02-01T01:23:07;5.57;;;3.55;;
73869;SDS011;64924;42.140;24.762;2023-02-01T01:25:39;5.65;;;3.03;;
73869;SDS011;64924;42.140;24.762;2023-02-01T01:28:07;5.13;;;3.55;;
73869;SDS011;64924;42.140;24.762;2023-02-01T01:30:34;7.55;;;3.38;;
73869;SDS011;64924;42.140;24.762;2023-02-01T01:33:11;3.83;;;2.85;;
73869;SDS011;64924;42.140;24.762;2023-02-01T01:35:36;3.83;;;2.75;;
73869;SDS011;64924;42.140;24.762;2023-02-01T01:38:05;5.50;;;2.80;;
73869;SDS011;64924;42.140;24.762;2023-02-01T01:40:35;4.80;;;3.22;;
73869;SDS011;64924;42.140;24.762;2023-02-01T01:43:01;6.30;;;3.45;;
73869;SDS011;64924;42.140;24.762;2023-02-01T01:47:52;5.60;;;3.25;;
73869;SDS011;64924;42.140;24.762;2023-02-01T01:50:27;6.05;;;3.55;;
73869;SDS011;64924;42.140;24.762;2023-02-01T01:53:02;4.50;;;3.30;;
73869;SDS011;64924;42.140;24.762;2023-02-01T01:55:32;6.57;;;4.00;;
73869;SDS011;64924;42.140;24.762;2023-02-01T01:58:07;7.75;;;3.53;;
73869;SDS011;64924;42.140;24.762;2023-02-01T02:00:48;5.85;;;3.40;;
73869;SDS011;64924;42.140;24.762;2023-02-01T02:03:20;6.07;;;3.80;;
73869;SDS011;64924;42.140;24.762;2023-02-01T02:06:20;7.82;;;4.53;;
73869;SDS011;64924;42.140;24.762;2023-02-01T02:08:55;6.80;;;3.92;;
73869;SDS011;64924;42.140;24.762;2023-02-01T02:11:20;6.05;;;3.70;;
73869;SDS011;64924;42.140;24.762;2023-02-01T02:13:48;4.95;;;3.20;;
73869;SDS011;64924;42.140;24.762;2023-02-01T02:24:09;3.35;;;2.70;;
73869;SDS011;64924;42.140;24.762;2023-02-01T02:26:54;5.85;;;3.33;;
73869;SDS011;64924;42.140;24.762;2023-02-01T02:37:59;3.97;;;2.70;;
73869;SDS011;64924;42.140;24.762;2023-02-01T02:40:54;5.68;;;3.50;;
73869;SDS011;64924;42.140;24.762;2023-02-01T02:46:32;8.80;;;3.35;;
73869;SDS011;64924;42.140;24.762;2023-02-01T02:52:04;5.13;;;3.00;;
73869;SDS011;64924;42.140;24.762;2023-02-01T02:54:56;4.05;;;2.83;;
73869;SDS011;64924;42.140;24.762;2023-02-01T02:57:32;6.28;;;3.22;;
73869;SDS011;64924;42.140;24.762;2023-02-01T03:00:29;4.10;;;3.13;;
73869;SDS011;64924;42.140;24.762;2023-02-01T03:03:16;6.20;;;3.17;;
73869;SDS011;64924;42.140;24.762;2023-02-01T03:06:00;3.42;;;2.58;;
73869;SDS011;64924;42.140;24.762;2023-02-01T03:08:27;4.43;;;2.65;;
73869;SDS011;64924;42.140;24.762;2023-02-01T03:10:58;5.90;;;2.83;;
73869;SDS011;64924;42.140;24.762;2023-02-01T03:18:58;6.10;;;2.97;;
73869;SDS011;64924;42.140;24.762;2023-02-01T03:21:47;6.18;;;3.33;;
73869;SDS011;64924;42.140;24.762;2023-02-01T03:24:26;5.60;;;2.60;;
73869;SDS011;64924;42.140;24.762;2023-02-01T03:27:00;7.45;;;3.42;;
73869;SDS011;64924;42.140;24.762;2023-02-01T03:30:26;4.63;;;3.05;;
73869;SDS011;64924;42.140;24.762;2023-02-01T03:32:34;8.93;;;3.75;;
73869;SDS011;64924;42.140;24.762;2023-02-01T03:35:20;5.50;;;3.47;;
73869;SDS011;64924;42.140;24.762;2023-02-01T03:37:52;4.03;;;3.38;;
73869;SDS011;64924;42.140;24.762;2023-02-01T03:40:27;6.20;;;3.60;;
73869;SDS011;64924;42.140;24.762;2023-02-01T03:42:56;8.13;;;4.20;;
73869;SDS011;64924;42.140;24.762;2023-02-01T03:45:27;5.50;;;4.00;;
73869;SDS011;64924;42.140;24.762;2023-02-01T03:47:58;5.72;;;4.50;;
73869;SDS011;64924;42.140;24.762;2023-02-01T03:50:25;6.85;;;4.15;;
73869;SDS011;64924;42.140;24.762;2023-02-01T03:52:59;4.80;;;3.67;;
73869;SDS011;64924;42.140;24.762;2023-02-01T03:55:29;5.65;;;4.20;;
73869;SDS011;64924;42.140;24.762;2023-02-01T03:58:17;7.88;;;4.10;;
73869;SDS011;64924;42.140;24.762;2023-02-01T04:00:46;6.82;;;4.20;;
73869;SDS011;64924;42.140;24.762;2023-02-01T04:03:16;6.40;;;4.03;;
73869;SDS011;64924;42.140;24.762;2023-02-01T04:05:42;6.68;;;4.05;;
73869;SDS011;64924;42.140;24.762;2023-02-01T04:08:07;7.85;;;5.43;;
73869;SDS011;64924;42.140;24.762;2023-02-01T04:10:33;7.93;;;4.97;;
73869;SDS011;64924;42.140;24.762;2023-02-01T04:12:58;6.97;;;4.90;;
73869;SDS011;64924;42.140;24.762;2023-02-01T04:15:24;7.65;;;5.20;;
73869;SDS011;64924;42.140;24.762;2023-02-01T04:17:50;7.72;;;5.30;;
73869;SDS011;64924;42.140;24.762;2023-02-01T04:20:16;10.73;;;4.90;;
73869;SDS011;64924;42.140;24.762;2023-02-01T04:22:42;7.18;;;5.53;;
73869;SDS011;64924;42.140;24.762;2023-02-01T04:25:08;8.13;;;4.68;;
73869;SDS011;64924;42.140;24.762;2023-02-01T04:27:37;9.15;;;5.13;;
73869;SDS011;64924;42.140;24.762;2023-02-01T04:30:03;6.15;;;4.97;;
73869;SDS011;64924;42.140;24.762;2023-02-01T04:32:29;6.50;;;4.75;;
73869;SDS011;64924;42.140;24.762;2023-02-01T04:34:55;7.38;;;4.90;;
73869;SDS011;64924;42.140;24.762;2023-02-01T04:37:20;6.57;;;4.78;;
73869;SDS011;64924;42.140;24.762;2023-02-01T04:39:46;7.57;;;5.00;;
73869;SDS011;64924;42.140;24.762;2023-02-01T04:42:11;9.07;;;5.28;;
73869;SDS011;64924;42.140;24.762;2023-02-01T04:44:37;6.80;;;5.30;;
73869;SDS011;64924;42.140;24.762;2023-02-01T04:47:05;6.35;;;4.72;;
73869;SDS011;64924;42.140;24.762;2023-02-01T04:49:30;7.30;;;5.20;;
73869;SDS011;64924;42.140;24.762;2023-02-01T04:51:56;8.45;;;6.40;;
73869;SDS011;64924;42.140;24.762;2023-02-01T04:54:21;6.70;;;4.97;;
73869;SDS011;64924;42.140;24.762;2023-02-01T04:56:47;7.00;;;4.55;;
73869;SDS011;64924;42.140;24.762;2023-02-01T04:59:12;7.95;;;5.38;;
73869;SDS011;64924;42.140;24.762;2023-02-01T05:01:38;6.72;;;4.75;;
73869;SDS011;64924;42.140;24.762;2023-02-01T05:04:03;9.15;;;5.45;;
73869;SDS011;64924;42.140;24.762;2023-02-01T05:06:29;6.72;;;5.10;;
73869;SDS011;64924;42.140;24.762;2023-02-01T05:08:54;9.70;;;5.38;;
73869;SDS011;64924;42.140;24.762;2023-02-01T05:11:20;9.25;;;5.53;;
73869;SDS011;64924;42.140;24.762;2023-02-01T05:14:04;8.02;;;4.75;;
73869;SDS011;64924;42.140;24.762;2023-02-01T05:16:30;10.65;;;5.25;;
73869;SDS011;64924;42.140;24.762;2023-02-01T05:18:56;6.15;;;4.18;;
73869;SDS011;64924;42.140;24.762;2023-02-01T05:21:21;9.80;;;4.75;;
73869;SDS011;64924;42.140;24.762;2023-02-01T05:23:47;8.05;;;4.65;;
73869;SDS011;64924;42.140;24.762;2023-02-01T05:26:31;7.10;;;4.32;;
73869;SDS011;64924;42.140;24.762;2023-02-01T05:28:56;6.45;;;3.85;;
73869;SDS011;64924;42.140;24.762;2023-02-01T05:31:22;9.55;;;3.90;;
73869;SDS011;64924;42.140;24.762;2023-02-01T05:33:48;8.07;;;4.20;;
73869;SDS011;64924;42.140;24.762;2023-02-01T05:36:14;5.63;;;3.40;;
73869;SDS011;64924;42.140;24.762;2023-02-01T05:38:40;8.30;;;4.20;;
73869;SDS011;64924;42.140;24.762;2023-02-01T05:41:08;9.93;;;5.18;;
73869;SDS011;64924;42.140;24.762;2023-02-01T05:43:38;8.48;;;4.57;;
73869;SDS011;64924;42.140;24.762;2023-02-01T05:46:04;9.10;;;4.43;;
73869;SDS011;64924;42.140;24.762;2023-02-01T05:48:29;8.98;;;4.45;;
73869;SDS011;64924;42.140;24.762;2023-02-01T05:50:55;10.82;;;4.53;;
73869;SDS011;64924;42.140;24.762;2023-02-01T05:53:20;7.45;;;4.55;;
73869;SDS011;64924;42.140;24.762;2023-02-01T05:55:46;9.27;;;4.53;;
73869;SDS011;64924;42.140;24.762;2023-02-01T05:58:11;10.25;;;4.85;;
73869;SDS011;64924;42.140;24.762;2023-02-01T06:00:37;11.02;;;5.22;;
73869;SDS011;64924;42.140;24.762;2023-02-01T06:03:03;10.40;;;4.07;;
73869;SDS011;64924;42.140;24.762;2023-02-01T06:05:28;11.65;;;5.07;;
73869;SDS011;64924;42.140;24.762;2023-02-01T06:07:54;11.15;;;5.28;;
73869;SDS011;64924;42.140;24.762;2023-02-01T06:10:19;8.65;;;3.90;;
73869;SDS011;64924;42.140;24.762;2023-02-01T06:12:45;11.57;;;4.72;;
73869;SDS011;64924;42.140;24.762;2023-02-01T06:15:11;7.20;;;4.22;;
73869;SDS011;64924;42.140;24.762;2023-02-01T06:17:37;8.50;;;4.93;;
73869;SDS011;64924;42.140;24.762;2023-02-01T06:20:04;18.38;;;10.27;;
73869;SDS011;64924;42.140;24.762;2023-02-01T06:22:31;15.98;;;7.05;;
73869;SDS011;64924;42.140;24.762;2023-02-01T06:24:57;8.70;;;4.85;;
73869;SDS011;64924;42.140;24.762;2023-02-01T06:27:24;7.05;;;4.10;;
73869;SDS011;64924;42.140;24.762;2023-02-01T06:29:50;7.15;;;3.70;;
73869;SDS011;64924;42.140;24.762;2023-02-01T06:32:15;9.50;;;4.63;;
73869;SDS011;64924;42.140;24.762;2023-02-01T06:34:42;11.07;;;4.00;;
73869;SDS011;64924;42.140;24.762;2023-02-01T06:37:08;6.43;;;3.33;;
73869;SDS011;64924;42.140;24.762;2023-02-01T06:39:33;6.88;;;3.20;;
73869;SDS011;64924;42.140;24.762;2023-02-01T06:41:59;8.73;;;3.65;;
73869;SDS011;64924;42.140;24.762;2023-02-01T06:44:24;10.13;;;4.03;;
73869;SDS011;64924;42.140;24.762;2023-02-01T06:46:50;8.57;;;3.40;;
73869;SDS011;64924;42.140;24.762;2023-02-01T06:49:15;6.47;;;3.28;;
73869;SDS011;64924;42.140;24.762;2023-02-01T06:51:41;5.30;;;2.72;;
73869;SDS011;64924;42.140;24.762;2023-02-01T06:54:06;6.32;;;3.47;;
73869;SDS011;64924;42.140;24.762;2023-02-01T06:56:32;5.32;;;2.80;;
73869;SDS011;64924;42.140;24.762;2023-02-01T06:58:57;6.53;;;3.58;;
73869;SDS011;64924;42.140;24.762;2023-02-01T07:01:23;5.75;;;2.53;;
73869;SDS011;64924;42.140;24.762;2023-02-01T07:03:49;7.30;;;3.20;;
73869;SDS011;64924;42.140;24.762;2023-02-01T07:06:16;14.85;;;3.38;;
73869;SDS011;64924;42.140;24.762;2023-02-01T07:08:45;5.75;;;3.05;;
73869;SDS011;64924;42.140;24.762;2023-02-01T07:11:12;16.20;;;5.25;;
73869;SDS011;64924;42.140;24.762;2023-02-01T07:13:39;5.28;;;3.15;;
73869;SDS011;64924;42.140;24.762;2023-02-01T07:16:06;5.88;;;3.28;;
73869;SDS011;64924;42.140;24.762;2023-02-01T07:18:33;5.82;;;3.45;;
73869;SDS011;64924;42.140;24.762;2023-02-01T07:20:59;8.05;;;3.38;;
73869;SDS011;64924;42.140;24.762;2023-02-01T07:23:25;5.28;;;3.20;;
73869;SDS011;64924;42.140;24.762;2023-02-01T07:25:58;6.35;;;4.03;;
73869;SDS011;64924;42.140;24.762;2023-02-01T07:28:25;10.82;;;4.20;;
73869;SDS011;64924;42.140;24.762;2023-02-01T07:30:53;6.78;;;3.78;;
73869;SDS011;64924;42.140;24.762;2023-02-01T07:33:22;9.70;;;4.90;;
73869;SDS011;64924;42.140;24.762;2023-02-01T07:35:49;6.40;;;3.88;;
73869;SDS011;64924;42.140;24.762;2023-02-01T07:38:16;11.82;;;6.40;;
73869;SDS011;64924;42.140;24.762;2023-02-01T07:40:42;15.15;;;5.53;;
73869;SDS011;64924;42.140;24.762;2023-02-01T07:43:08;12.18;;;5.40;;
73869;SDS011;64924;42.140;24.762;2023-02-01T07:45:34;13.25;;;4.82;;
73869;SDS011;64924;42.140;24.762;2023-02-01T07:48:01;11.60;;;6.30;;
73869;SDS011;64924;42.140;24.762;2023-02-01T07:50:27;11.98;;;4.55;;
73869;SDS011;64924;42.140;24.762;2023-02-01T07:52:53;6.25;;;3.58;;
73869;SDS011;64924;42.140;24.762;2023-02-01T07:55:21;6.15;;;3.70;;
73869;SDS011;64924;42.140;24.762;2023-02-01T07:57:46;6.82;;;3.92;;
73869;SDS011;64924;42.140;24.762;2023-02-01T08:00:12;16.13;;;4.38;;
73869;SDS011;64924;42.140;24.762;2023-02-01T08:02:57;6.32;;;3.75;;
73869;SDS011;64924;42.140;24.762;2023-02-01T08:05:23;6.95;;;3.92;;
73869;SDS011;64924;42.140;24.762;2023-02-01T08:07:49;8.60;;;3.88;;
73869;SDS011;64924;42.140;24.762;2023-02-01T08:10:15;14.48;;;5.13;;
73869;SDS011;64924;42.140;24.762;2023-02-01T08:12:42;11.15;;;4.22;;
73869;SDS011;64924;42.140;24.762;2023-02-01T08:15:08;10.00;;;4.60;;
73869;SDS011;64924;42.140;24.762;2023-02-01T08:17:33;10.88;;;4.97;;
73869;SDS011;64924;42.140;24.762;2023-02-01T08:19:59;10.35;;;4.70;;
73869;SDS011;64924;42.140;24.762;2023-02-01T08:22:24;10.00;;;4.32;;
73869;SDS011;64924;42.140;24.762;2023-02-01T08:24:50;11.40;;;4.88;;
73869;SDS011;64924;42.140;24.762;2023-02-01T08:27:15;7.82;;;3.88;;
73869;SDS011;64924;42.140;24.762;2023-02-01T08:29:41;6.55;;;4.15;;
73869;SDS011;64924;42.140;24.762;2023-02-01T08:32:07;9.75;;;4.20;;
73869;SDS011;64924;42.140;24.762;2023-02-01T08:34:32;11.07;;;4.57;;
73869;SDS011;64924;42.140;24.762;2023-02-01T08:36:58;9.70;;;4.40;;
73869;SDS011;64924;42.140;24.762;2023-02-01T08:39:24;6.47;;;3.55;;
73869;SDS011;64924;42.140;24.762;2023-02-01T08:41:50;10.60;;;4.07;;
73869;SDS011;64924;42.140;24.762;2023-02-01T08:44:34;8.98;;;4.07;;
73869;SDS011;64924;42.140;24.762;2023-02-01T08:47:00;7.20;;;4.38;;
73869;SDS011;64924;42.140;24.762;2023-02-01T08:49:26;7.68;;;3.53;;
73869;SDS011;64924;42.140;24.762;2023-02-01T08:51:51;13.48;;;5.00;;
73869;SDS011;64924;42.140;24.762;2023-02-01T08:54:17;9.80;;;4.40;;
73869;SDS011;64924;42.140;24.762;2023-02-01T08:56:42;13.95;;;7.03;;
73869;SDS011;64924;42.140;24.762;2023-02-01T08:59:08;11.27;;;5.00;;
73869;SDS011;64924;42.140;24.762;2023-02-01T09:01:33;11.88;;;4.47;;
73869;SDS011;64924;42.140;24.762;2023-02-01T09:04:05;10.35;;;5.50;;
73869;SDS011;64924;42.140;24.762;2023-02-01T09:06:42;13.25;;;5.47;;
73869;SDS011;64924;42.140;24.762;2023-02-01T09:09:10;9.40;;;4.07;;
73869;SDS011;64924;42.140;24.762;2023-02-01T09:11:36;10.25;;;4.18;;
73869;SDS011;64924;42.140;24.762;2023-02-01T09:14:06;7.07;;;4.20;;
73869;SDS011;64924;42.140;24.762;2023-02-01T09:16:33;9.75;;;4.03;;
73869;SDS011;64924;42.140;24.762;2023-02-01T09:18:59;10.23;;;4.32;;
73869;SDS011;64924;42.140;24.762;2023-02-01T09:21:24;7.60;;;3.97;;
73869;SDS011;64924;42.140;24.762;2023-02-01T09:23:50;9.10;;;3.67;;
73869;SDS011;64924;42.140;24.762;2023-02-01T09:26:17;9.32;;;4.30;;
73869;SDS011;64924;42.140;24.762;2023-02-01T09:28:44;7.72;;;4.05;;
73869;SDS011;64924;42.140;24.762;2023-02-01T09:31:10;6.95;;;4.30;;
73869;SDS011;64924;42.140;24.762;2023-02-01T09:33:35;6.75;;;3.35;;
73869;SDS011;64924;42.140;24.762;2023-02-01T09:36:02;6.55;;;3.22;;
73869;SDS011;64924;42.140;24.762;2023-02-01T09:38:29;5.88;;;3.00;;
73869;SDS011;64924;42.140;24.762;2023-02-01T09:40:56;7.30;;;3.13;;
73869;SDS011;64924;42.140;24.762;2023-02-01T09:46:19;10.35;;;3.72;;
73869;SDS011;64924;42.140;24.762;2023-02-01T09:48:50;7.80;;;3.30;;
73869;SDS011;64924;42.140;24.762;2023-02-01T09:51:20;10.65;;;2.78;;
73869;SDS011;64924;42.140;24.762;2023-02-01T09:54:34;6.97;;;3.20;;
73869;SDS011;64924;42.140;24.762;2023-02-01T09:59:33;4.03;;;2.13;;
73869;SDS011;64924;42.140;24.762;2023-02-01T10:02:05;7.28;;;1.98;;
73869;SDS011;64924;42.140;24.762;2023-02-01T10:04:47;7.95;;;3.25;;
73869;SDS011;64924;42.140;24.762;2023-02-01T10:12:51;7.32;;;2.95;;
73869;SDS011;64924;42.140;24.762;2023-02-01T10:23:40;9.07;;;2.40;;
73869;SDS011;64924;42.140;24.762;2023-02-01T10:26:26;5.72;;;2.42;;
73869;SDS011;64924;42.140;24.762;2023-02-01T10:29:01;4.57;;;2.33;;
73869;SDS011;64924;42.140;24.762;2023-02-01T10:31:29;7.75;;;2.45;;
73869;SDS011;64924;42.140;24.762;2023-02-01T10:34:00;5.13;;;2.42;;
73869;SDS011;64924;42.140;24.762;2023-02-01T10:36:34;7.50;;;2.80;;
73869;SDS011;64924;42.140;24.762;2023-02-01T10:39:05;8.25;;;2.72;;
73869;SDS011;64924;42.140;24.762;2023-02-01T10:41:35;10.20;;;4.28;;
73869;SDS011;64924;42.140;24.762;2023-02-01T10:44:05;5.90;;;2.70;;
73869;SDS011;64924;42.140;24.762;2023-02-01T10:46:37;8.80;;;2.83;;
73869;SDS011;64924;42.140;24.762;2023-02-01T10:49:03;7.38;;;3.50;;
73869;SDS011;64924;42.140;24.762;2023-02-01T10:54:34;7.20;;;2.40;;
73869;SDS011;64924;42.140;24.762;2023-02-01T10:57:07;4.65;;;2.20;;
73869;SDS011;64924;42.140;24.762;2023-02-01T10:59:45;7.85;;;2.00;;
73869;SDS011;64924;42.140;24.762;2023-02-01T11:02:15;7.60;;;2.50;;
73869;SDS011;64924;42.140;24.762;2023-02-01T11:04:45;6.22;;;2.17;;
73869;SDS011;64924;42.140;24.762;2023-02-01T11:07:23;5.55;;;2.67;;
73869;SDS011;64924;42.140;24.762;2023-02-01T11:09:50;6.32;;;2.58;;
73869;SDS011;64924;42.140;24.762;2023-02-01T11:14:55;3.55;;;1.80;;
73869;SDS011;64924;42.140;24.762;2023-02-01T11:17:27;6.63;;;2.30;;
73869;SDS011;64924;42.140;24.762;2023-02-01T11:19:58;6.60;;;2.10;;
73869;SDS011;64924;42.140;24.762;2023-02-01T11:22:26;5.93;;;2.30;;
73869;SDS011;64924;42.140;24.762;2023-02-01T11:24:54;5.65;;;2.13;;
73869;SDS011;64924;42.140;24.762;2023-02-01T11:27:21;4.25;;;2.05;;
73869;SDS011;64924;42.140;24.762;2023-02-01T11:29:50;11.50;;;2.17;;
73869;SDS011;64924;42.140;24.762;2023-02-01T11:32:19;5.45;;;1.70;;
73869;SDS011;64924;42.140;24.762;2023-02-01T11:34:51;2.80;;;1.70;;
73869;SDS011;64924;42.140;24.762;2023-02-01T11:37:25;4.93;;;2.20;;
73869;SDS011;64924;42.140;24.762;2023-02-01T11:39:58;4.60;;;1.90;;
73869;SDS011;64924;42.140;24.762;2023-02-01T11:42:25;4.75;;;1.80;;
73869;SDS011;64924;42.140;24.762;2023-02-01T11:45:13;4.43;;;1.80;;
73869;SDS011;64924;42.140;24.762;2023-02-01T11:47:43;5.10;;;1.90;;
73869;SDS011;64924;42.140;24.762;2023-02-01T11:50:16;4.35;;;1.92;;
73869;SDS011;64924;42.140;24.762;2023-02-01T11:52:48;12.35;;;2.30;;
73869;SDS011;64924;42.140;24.762;2023-02-01T11:55:38;13.77;;;2.25;;
73869;SDS011;64924;42.140;24.762;2023-02-01T12:01:40;4.70;;;2.10;;
73869;SDS011;64924;42.140;24.762;2023-02-01T12:08:15;4.70;;;1.85;;
73869;SDS011;64924;42.140;24.762;2023-02-01T12:15:18;8.52;;;2.55;;
73869;SDS011;64924;42.140;24.762;2023-02-01T12:20:28;3.63;;;1.80;;
73869;SDS011;64924;42.140;24.762;2023-02-01T12:29:09;4.75;;;1.80;;
73869;SDS011;64924;42.140;24.762;2023-02-01T12:39:40;7.70;;;1.98;;
73869;SDS011;64924;42.140;24.762;2023-02-01T12:42:52;2.88;;;1.60;;
73869;SDS011;64924;42.140;24.762;2023-02-01T12:50:28;3.92;;;1.95;;
73869;SDS011;64924;42.140;24.762;2023-02-01T12:53:06;5.75;;;2.90;;
73869;SDS011;64924;42.140;24.762;2023-02-01T12:55:44;9.98;;;2.50;;
73869;SDS011;64924;42.140;24.762;2023-02-01T13:00:48;6.28;;;2.20;;
73869;SDS011;64924;42.140;24.762;2023-02-01T13:03:27;4.60;;;2.10;;
73869;SDS011;64924;42.140;24.762;2023-02-01T13:09:22;6.18;;;2.20;;
73869;SDS011;64924;42.140;24.762;2023-02-01T13:11:52;8.35;;;2.63;;
73869;SDS011;64924;42.140;24.762;2023-02-01T13:14:32;5.57;;;2.05;;
73869;SDS011;64924;42.140;24.762;2023-02-01T13:17:05;3.35;;;1.77;;
73869;SDS011;64924;42.140;24.762;2023-02-01T13:19:43;5.50;;;2.28;;
73869;SDS011;64924;42.140;24.762;2023-02-01T13:22:17;3.10;;;1.80;;
73869;SDS011;64924;42.140;24.762;2023-02-01T13:25:00;5.55;;;1.77;;
73869;SDS011;64924;42.140;24.762;2023-02-01T13:27:29;6.40;;;2.65;;
73869;SDS011;64924;42.140;24.762;2023-02-01T13:29:58;4.63;;;2.25;;
73869;SDS011;64924;42.140;24.762;2023-02-01T13:37:47;7.05;;;2.33;;
73869;SDS011;64924;42.140;24.762;2023-02-01T13:45:53;24.90;;;11.52;;
73869;SDS011;64924;42.140;24.762;2023-02-01T13:48:23;8.63;;;3.92;;
73869;SDS011;64924;42.140;24.762;2023-02-01T13:50:55;8.43;;;4.07;;
73869;SDS011;64924;42.140;24.762;2023-02-01T13:53:25;8.45;;;3.40;;
73869;SDS011;64924;42.140;24.762;2023-02-01T13:55:55;5.38;;;3.03;;
73869;SDS011;64924;42.140;24.762;2023-02-01T14:03:52;9.13;;;3.60;;
73869;SDS011;64924;42.140;24.762;2023-02-01T14:06:33;4.17;;;2.20;;
73869;SDS011;64924;42.140;24.762;2023-02-01T14:21:51;4.60;;;2.08;;
73869;SDS011;64924;42.140;24.762;2023-02-01T14:24:25;4.65;;;2.70;;
73869;SDS011;64924;42.140;24.762;2023-02-01T14:26:53;6.53;;;2.13;;
73869;SDS011;64924;42.140;24.762;2023-02-01T14:29:36;3.28;;;1.70;;
73869;SDS011;64924;42.140;24.762;2023-02-01T14:34:48;5.60;;;2.00;;
73869;SDS011;64924;42.140;24.762;2023-02-01T14:42:18;4.75;;;2.38;;
73869;SDS011;64924;42.140;24.762;2023-02-01T14:44:51;5.53;;;2.20;;
73869;SDS011;64924;42.140;24.762;2023-02-01T14:52:28;4.97;;;2.08;;
73869;SDS011;64924;42.140;24.762;2023-02-01T14:55:00;3.17;;;1.70;;
73869;SDS011;64924;42.140;24.762;2023-02-01T14:57:30;3.70;;;1.80;;
73869;SDS011;64924;42.140;24.762;2023-02-01T15:00:05;4.95;;;2.78;;
73869;SDS011;64924;42.140;24.762;2023-02-01T15:02:50;4.03;;;2.15;;
73869;SDS011;64924;42.140;24.762;2023-02-01T15:05:25;4.57;;;2.65;;
73869;SDS011;64924;42.140;24.762;2023-02-01T15:07:51;3.55;;;2.45;;
73869;SDS011;64924;42.140;24.762;2023-02-01T15:10:18;8.10;;;2.65;;
73869;SDS011;64924;42.140;24.762;2023-02-01T15:12:45;6.85;;;3.00;;
73869;SDS011;64924;42.140;24.762;2023-02-01T15:15:31;10.38;;;3.35;;
73869;SDS011;64924;42.140;24.762;2023-02-01T15:18:01;6.25;;;3.28;;
73869;SDS011;64924;42.140;24.762;2023-02-01T15:20:27;5.35;;;2.50;;
73869;SDS011;64924;42.140;24.762;2023-02-01T15:23:01;9.68;;;3.58;;
73869;SDS011;64924;42.140;24.762;2023-02-01T15:25:33;6.25;;;3.20;;
73869;SDS011;64924;42.140;24.762;2023-02-01T15:28:02;10.20;;;3.78;;
73869;SDS011;64924;42.140;24.762;2023-02-01T15:30:32;6.85;;;3.05;;
73869;SDS011;64924;42.140;24.762;2023-02-01T15:35:34;5.32;;;2.40;;
73869;SDS011;64924;42.140;24.762;2023-02-01T15:40:56;4.95;;;3.40;;
73869;SDS011;64924;42.140;24.762;2023-02-01T15:43:35;6.13;;;3.58;;
73869;SDS011;64924;42.140;24.762;2023-02-01T15:46:06;4.93;;;3.00;;
73869;SDS011;64924;42.140;24.762;2023-02-01T15:48:42;7.22;;;3.38;;
73869;SDS011;64924;42.140;24.762;2023-02-01T15:51:13;4.82;;;2.80;;
73869;SDS011;64924;42.140;24.762;2023-02-01T15:53:51;10.00;;;4.28;;
73869;SDS011;64924;42.140;24.762;2023-02-01T15:58:50;9.52;;;5.22;;
73869;SDS011;64924;42.140;24.762;2023-02-01T16:01:18;7.30;;;4.18;;
73869;SDS011;64924;42.140;24.762;2023-02-01T16:03:45;6.25;;;3.83;;
73869;SDS011;64924;42.140;24.762;2023-02-01T16:08:54;10.02;;;4.35;;
73869;SDS011;64924;42.140;24.762;2023-02-01T16:11:27;4.78;;;3.35;;
73869;SDS011;64924;42.140;24.762;2023-02-01T16:13:56;7.68;;;3.28;;
73869;SDS011;64924;42.140;24.762;2023-02-01T16:16:23;7.38;;;3.05;;
73869;SDS011;64924;42.140;24.762;2023-02-01T16:18:49;7.75;;;2.92;;
73869;SDS011;64924;42.140;24.762;2023-02-01T16:21:14;7.35;;;2.88;;
73869;SDS011;64924;42.140;24.762;2023-02-01T16:23:40;7.03;;;3.33;;
73869;SDS011;64924;42.140;24.762;2023-02-01T16:26:05;8.40;;;4.05;;
73869;SDS011;64924;42.140;24.762;2023-02-01T16:28:31;6.78;;;3.33;;
73869;SDS011;64924;42.140;24.762;2023-02-01T16:30:57;8.10;;;3.45;;
73869;SDS011;64924;42.140;24.762;2023-02-01T16:33:23;12.77;;;7.03;;
73869;SDS011;64924;42.140;24.762;2023-02-01T16:35:50;10.43;;;4.30;;
73869;SDS011;64924;42.140;24.762;2023-02-01T16:38:17;10.07;;;4.25;;
73869;SDS011;64924;42.140;24.762;2023-02-01T16:40:46;7.40;;;4.05;;
73869;SDS011;64924;42.140;24.762;2023-02-01T16:43:14;11.07;;;3.85;;
73869;SDS011;64924;42.140;24.762;2023-02-01T16:45:40;7.18;;;4.20;;
73869;SDS011;64924;42.140;24.762;2023-02-01T16:48:05;6.78;;;4.05;;
73869;SDS011;64924;42.140;24.762;2023-02-01T16:50:31;7.22;;;3.80;;
73869;SDS011;64924;42.140;24.762;2023-02-01T16:52:58;8.43;;;3.10;;
73869;SDS011;64924;42.140;24.762;2023-02-01T16:55:24;10.38;;;3.70;;
73869;SDS011;64924;42.140;24.762;2023-02-01T16:57:50;6.50;;;3.40;;
73869;SDS011;64924;42.140;24.762;2023-02-01T17:00:16;5.53;;;3.05;;
73869;SDS011;64924;42.140;24.762;2023-02-01T17:02:42;9.32;;;3.63;;
73869;SDS011;64924;42.140;24.762;2023-02-01T17:05:09;7.53;;;3.30;;
73869;SDS011;64924;42.140;24.762;2023-02-01T17:07:35;6.45;;;3.20;;
73869;SDS011;64924;42.140;24.762;2023-02-01T17:10:03;8.13;;;3.28;;
73869;SDS011;64924;42.140;24.762;2023-02-01T17:12:31;6.05;;;3.78;;
73869;SDS011;64924;42.140;24.762;2023-02-01T17:14:57;9.25;;;4.20;;
73869;SDS011;64924;42.140;24.762;2023-02-01T17:17:25;8.82;;;4.57;;
73869;SDS011;64924;42.140;24.762;2023-02-01T17:19:58;6.80;;;4.38;;